createdAt,value
2022-09-01T00:00:22.578Z,16.6
2022-09-01T00:03:26.750Z,16.2
2022-09-01T00:06:15.729Z,15.9
2022-09-01T00:09:07.188Z,15.7
2022-09-01T00:11:58.016Z,15.5
2022-09-01T00:14:45.897Z,15.4
2022-09-01T00:17:34.492Z,16.2
2022-09-01T00:20:22.800Z,17.5
2022-09-01T00:23:10.753Z,17.8
2022-09-01T00:25:58.289Z,17.4
2022-09-01T00:28:45.803Z,16.9
2022-09-01T00:31:33.724Z,16.5
2022-09-01T00:34:22.272Z,16.2
2022-09-01T00:37:10.508Z,16
2022-09-01T00:39:58.137Z,16.5
2022-09-01T00:42:45.656Z,17.9
2022-09-01T00:45:33.998Z,18.1
2022-09-01T00:48:22.104Z,17.6
2022-09-01T00:51:10.310Z,17.1
2022-09-01T00:53:58.699Z,16.7
2022-09-01T00:56:48.707Z,16.4
2022-09-01T00:59:45.805Z,16.1
2022-09-01T01:02:41.606Z,16.7
2022-09-01T01:05:29.588Z,18.2
2022-09-01T01:08:21.518Z,18.2
2022-09-01T01:11:18.464Z,17.5
2022-09-01T01:14:06.396Z,17.1
2022-09-01T01:16:56.864Z,16.7
2022-09-01T01:19:45.821Z,16.3
2022-09-01T01:23:08.199Z,16
2022-09-01T01:26:04.157Z,16.5
2022-09-01T01:28:55.152Z,17.6
2022-09-01T01:31:46.254Z,17.8
2022-09-01T01:34:36.758Z,17.3
2022-09-01T01:37:28.224Z,16.8
2022-09-01T01:40:15.905Z,16.4
2022-09-01T01:43:07.412Z,16.1
2022-09-01T01:46:06.487Z,16
2022-09-01T01:48:55.597Z,16.9
2022-09-01T01:51:43.233Z,18
2022-09-01T01:54:32.199Z,17.8
2022-09-01T01:57:19.874Z,17.2
2022-09-01T02:00:07.421Z,16.7
2022-09-01T02:02:56.928Z,16.2
2022-09-01T02:05:44.513Z,15.8
2022-09-01T02:08:34.061Z,16.2
2022-09-01T02:11:23.945Z,17.4
2022-09-01T02:14:12.077Z,17.6
2022-09-01T02:17:05.209Z,17
2022-09-01T02:19:52.789Z,16.5
2022-09-01T02:22:42.973Z,16
2022-09-01T02:25:30.553Z,15.8
2022-09-01T02:28:19.710Z,16.7
2022-09-01T02:31:08.955Z,17.8
2022-09-01T02:33:57.182Z,17.5
2022-09-01T02:36:45.890Z,16.9
2022-09-01T02:39:36.554Z,16.4
2022-09-01T02:42:24.097Z,16
2022-09-01T02:45:12.326Z,15.7
2022-09-01T02:48:00.927Z,15.7
2022-09-01T02:50:55.484Z,16.3
2022-09-01T02:53:43.961Z,17.2
2022-09-01T02:56:37.241Z,17.4
2022-09-01T02:59:24.893Z,16.8
2022-09-01T03:02:14.520Z,16.3
2022-09-01T03:05:02.053Z,15.9
2022-09-01T03:07:52.939Z,16.1
2022-09-01T03:10:43.771Z,17.1
2022-09-01T03:13:32.002Z,17.9
2022-09-01T03:16:19.520Z,17.7
2022-09-01T03:19:07.478Z,17.1
2022-09-01T03:21:56.770Z,16.5
2022-09-01T03:24:45.310Z,16.1
2022-09-01T03:27:32.892Z,15.9
2022-09-01T03:30:20.443Z,16.4
2022-09-01T03:33:08.471Z,17.3
2022-09-01T03:35:56.462Z,17.8
2022-09-01T03:38:44.400Z,17.3
2022-09-01T03:41:33.478Z,16.6
2022-09-01T03:44:22.670Z,16.1
2022-09-01T03:47:10.706Z,16.1
2022-09-01T03:49:59.900Z,16.9
2022-09-01T03:52:48.197Z,17.3
2022-09-01T03:55:38.288Z,17.5
2022-09-01T03:58:26.862Z,17
2022-09-01T04:01:14.848Z,16.4
2022-09-01T04:04:03.237Z,16
2022-09-01T04:06:51.255Z,16.2
2022-09-01T04:09:38.876Z,16.7
2022-09-01T04:12:28.776Z,17.1
2022-09-01T04:15:16.657Z,17.7
2022-09-01T04:18:04.536Z,17.3
2022-09-01T04:20:57.127Z,16.6
2022-09-01T04:23:45.208Z,16.1
2022-09-01T04:26:33.977Z,16.4
2022-09-01T04:29:22.994Z,16.8
2022-09-01T04:32:12.133Z,17.1
2022-09-01T04:35:00.252Z,17.5
2022-09-01T04:37:48.643Z,17.7
2022-09-01T04:40:36.521Z,17.3
2022-09-01T04:43:24.871Z,16.6
2022-09-01T04:46:12.527Z,16.3
2022-09-01T04:49:00.315Z,16.6
2022-09-01T04:51:54.521Z,17
2022-09-01T04:54:42.231Z,17.3
2022-09-01T04:57:29.840Z,17.7
2022-09-01T05:00:17.692Z,17.9
2022-09-01T05:03:08.276Z,17.6
2022-09-01T05:05:56.213Z,16.9
2022-09-01T05:08:45.776Z,16.5
2022-09-01T05:11:35.514Z,16.7
2022-09-01T05:14:27.222Z,17
2022-09-01T05:17:15.418Z,17.3
2022-09-01T05:20:03.467Z,17.7
2022-09-01T05:22:53.988Z,17.9
2022-09-01T05:25:42.119Z,18
2022-09-01T05:28:31.587Z,18.7
2022-09-01T05:31:19.196Z,18.3
2022-09-01T05:34:07.880Z,17.5
2022-09-01T05:36:57.211Z,16.9
2022-09-01T05:39:45.396Z,17
2022-09-01T05:42:32.949Z,17.4
2022-09-01T05:45:25.226Z,17.8
2022-09-01T05:48:12.974Z,18.1
2022-09-01T05:51:14.233Z,18.3
2022-09-01T05:54:13.239Z,18.4
2022-09-01T05:57:23.428Z,17.8
2022-09-01T06:00:21.066Z,17.1
2022-09-01T06:03:08.820Z,17.1
2022-09-01T06:05:56.838Z,17.5
2022-09-01T06:08:50.238Z,17.8
2022-09-01T06:11:43.509Z,18.2
2022-09-01T06:14:32.722Z,18.4
2022-09-01T06:17:20.322Z,18.4
2022-09-01T06:20:11.166Z,17.8
2022-09-01T06:22:59.084Z,17.3
2022-09-01T06:25:47.180Z,16.9
2022-09-01T06:28:36.809Z,17
2022-09-01T06:31:25.766Z,17.4
2022-09-01T06:34:18.627Z,18.1
2022-09-01T06:37:06.253Z,18.4
2022-09-01T06:39:54.457Z,18.6
2022-09-01T06:42:42.449Z,18.6
2022-09-01T06:45:32.014Z,18.1
2022-09-01T06:48:26.995Z,17.5
2022-09-01T06:51:17.767Z,17.1
2022-09-01T06:54:13.852Z,17.2
2022-09-01T07:00:23.504Z,18.4
2022-09-01T07:03:11.207Z,18.8
2022-09-01T07:06:02.379Z,18.4
2022-09-01T07:09:22.174Z,17.9
2022-09-01T07:12:34.976Z,17.4
2022-09-01T07:18:42.868Z,18.1
2022-09-01T07:21:42.002Z,18.7
2022-09-01T07:25:11.978Z,19.2
2022-09-01T07:28:02.082Z,18.8
2022-09-01T07:30:50.593Z,18.3
2022-09-01T07:33:41.957Z,18
2022-09-01T07:37:15.176Z,17.7
2022-09-01T07:44:13.441Z,18.8
2022-09-01T07:50:37.594Z,19.3
2022-09-01T07:53:32.777Z,18.8
2022-09-01T07:56:21.289Z,18.4
2022-09-01T07:59:14.863Z,18.2
2022-09-01T08:02:03.586Z,18.1
2022-09-01T08:04:51.214Z,18.2
2022-09-01T08:07:51.897Z,18.8
2022-09-01T08:10:39.925Z,19.3
2022-09-01T08:13:30.469Z,19.5
2022-09-01T08:16:18.908Z,19.2
2022-09-01T08:19:16.587Z,19.1
2022-09-01T08:22:04.351Z,18.9
2022-09-01T08:24:52.246Z,18.9
2022-09-01T08:27:40.349Z,18.8
2022-09-01T08:30:28.220Z,18.7
2022-09-01T08:33:17.207Z,18.7
2022-09-01T08:36:05.070Z,18.6
2022-09-01T08:38:54.186Z,18.6
2022-09-01T08:41:46.794Z,18.6
2022-09-01T08:44:44.037Z,18.5
2022-09-01T08:48:04.677Z,18.5
2022-09-01T08:51:22.627Z,18.6
2022-09-01T08:54:18.075Z,18.6
2022-09-01T08:57:27.609Z,18.7
2022-09-01T09:00:19.970Z,18.7
2022-09-01T09:03:11.121Z,18.8
2022-09-01T09:06:07.258Z,18.8
2022-09-01T09:09:01.726Z,18.9
2022-09-01T09:11:51.280Z,19.1
2022-09-01T09:14:57.327Z,19.1
2022-09-01T09:18:00.591Z,19.1
2022-09-01T09:20:59.026Z,19.2
2022-09-01T09:23:55.980Z,19.2
2022-09-01T09:26:52.135Z,19.3
2022-09-01T09:29:41.940Z,19.3
2022-09-01T09:32:51.704Z,19.5
2022-09-01T09:36:20.228Z,19.5
2022-09-01T09:39:14.062Z,19.7
2022-09-01T09:42:04.517Z,19.8
2022-09-01T09:44:57.669Z,19.9
2022-09-01T09:47:45.902Z,20
2022-09-01T09:50:33.722Z,20.1
2022-09-01T09:53:23.398Z,20.3
2022-09-01T09:56:15.086Z,20.3
2022-09-01T09:59:05.843Z,20.3
2022-09-01T10:02:05.227Z,20.3
2022-09-01T10:05:16.586Z,20.2
2022-09-01T10:08:12.454Z,20.3
2022-09-01T10:11:24.470Z,20.3
2022-09-01T10:14:23.588Z,20.3
2022-09-01T10:17:31.898Z,20.4
2022-09-01T10:20:23.094Z,20.4
2022-09-01T10:23:15.306Z,20.6
2022-09-01T10:26:06.005Z,20.5
2022-09-01T10:28:59.834Z,20.5
2022-09-01T10:32:03.657Z,20.4
2022-09-01T10:35:07.566Z,20.3
2022-09-01T10:38:04.424Z,20.3
2022-09-01T10:40:55.302Z,20.3
2022-09-01T10:43:52.226Z,20.5
2022-09-01T10:46:41.893Z,20.6
2022-09-01T10:49:31.110Z,20.7
2022-09-01T10:53:08.535Z,20.7
2022-09-01T10:55:59.096Z,20.8
2022-09-01T11:02:28.420Z,21
2022-09-01T11:05:23.166Z,21.1
2022-09-01T11:08:15.744Z,21.2
2022-09-01T11:11:28.289Z,21.4
2022-09-01T11:14:22.756Z,21.5
2022-09-01T11:17:11.944Z,21.6
2022-09-01T11:20:05.056Z,21.6
2022-09-01T11:22:57.489Z,21.7
2022-09-01T11:25:48.893Z,21.6
2022-09-01T11:29:32.263Z,21.7
2022-09-01T11:32:54.400Z,21.7
2022-09-01T11:35:45.061Z,21.6
2022-09-01T11:38:42.319Z,21.8
2022-09-01T11:41:36.193Z,21.7
2022-09-01T11:44:37.263Z,21.8
2022-09-01T11:47:32.025Z,21.8
2022-09-01T11:50:25.477Z,21.9
2022-09-01T11:53:16.933Z,22
2022-09-01T11:56:09.202Z,22
2022-09-01T11:59:02.026Z,22
2022-09-01T12:01:49.797Z,22
2022-09-01T12:04:42.937Z,22
2022-09-01T12:07:31.042Z,22.2
2022-09-01T12:10:26.533Z,22.2
2022-09-01T12:13:19.771Z,22.2
2022-09-01T12:16:18.886Z,22.3
2022-09-01T12:19:07.500Z,22.3
2022-09-01T12:22:09.793Z,22.4
2022-09-01T12:25:01.972Z,22.5
2022-09-01T12:27:50.576Z,22.6
2022-09-01T12:30:38.925Z,22.6
2022-09-01T12:33:27.793Z,22.6
2022-09-01T12:36:17.645Z,22.5
2022-09-01T12:39:10.359Z,22.5
2022-09-01T12:42:07.633Z,22.4
2022-09-01T12:44:58.128Z,22.4
2022-09-01T12:47:48.507Z,22.3
2022-09-01T12:50:37.943Z,22.2
2022-09-01T12:53:30.977Z,22.3
2022-09-01T12:56:20.031Z,22.3
2022-09-01T12:59:17.898Z,22.3
2022-09-01T13:02:10.375Z,22.2
2022-09-01T13:05:19.915Z,22.2
2022-09-01T13:08:12.157Z,22.1
2022-09-01T13:11:03.100Z,22
2022-09-01T13:13:53.746Z,22
2022-09-01T13:16:41.819Z,22
2022-09-01T13:19:30.513Z,21.9
2022-09-01T13:22:18.338Z,22
2022-09-01T13:25:06.374Z,21.9
2022-09-01T13:27:55.485Z,21.9
2022-09-01T13:30:46.192Z,21.9
2022-09-01T13:34:10.585Z,21.8
2022-09-01T13:36:59.474Z,21.8
2022-09-01T13:39:47.005Z,21.7
2022-09-01T13:42:35.406Z,21.7
2022-09-01T13:45:24.459Z,21.6
2022-09-01T13:48:15.856Z,21.6
2022-09-01T13:51:18.884Z,21.5
2022-09-01T13:54:11.156Z,21.5
2022-09-01T13:56:58.690Z,21.5
2022-09-01T13:59:46.505Z,21.5
2022-09-01T14:02:34.115Z,21.5
2022-09-01T14:05:22.584Z,21.5
2022-09-01T14:08:12.189Z,21.5
2022-09-01T14:11:02.039Z,21.5
2022-09-01T14:13:49.942Z,21.5
2022-09-01T14:16:38.512Z,21.5
2022-09-01T14:19:26.166Z,21.5
2022-09-01T14:22:14.122Z,21.5
2022-09-01T14:25:01.916Z,21.6
2022-09-01T14:27:50.160Z,21.7
2022-09-01T14:30:39.508Z,21.7
2022-09-01T14:33:28.567Z,21.8
2022-09-01T14:36:16.464Z,21.8
2022-09-01T14:39:07.680Z,21.9
2022-09-01T14:41:55.272Z,21.9
2022-09-01T14:44:43.220Z,21.9
2022-09-01T14:47:31.672Z,21.8
2022-09-01T14:50:22.972Z,21.9
2022-09-01T14:53:12.192Z,21.9
2022-09-01T14:56:00.061Z,21.8
2022-09-01T14:58:48.841Z,21.8
2022-09-01T15:01:43.483Z,21.8
2022-09-01T15:04:31.759Z,21.7
2022-09-01T15:07:20.365Z,21.7
2022-09-01T15:10:08.193Z,21.6
2022-09-01T15:12:58.718Z,21.6
2022-09-01T15:15:47.762Z,21.6
2022-09-01T15:18:38.153Z,21.6
2022-09-01T15:21:25.924Z,21.5
2022-09-01T15:24:18.422Z,21.5
2022-09-01T15:27:07.788Z,21.5
2022-09-01T15:29:56.261Z,21.5
2022-09-01T15:32:44.234Z,21.5
2022-09-01T15:35:36.148Z,21.5
2022-09-01T15:38:29.796Z,21.5
2022-09-01T15:41:18.299Z,21.4
2022-09-01T15:44:08.670Z,21.4
2022-09-01T15:46:56.676Z,21.3
2022-09-01T15:49:44.338Z,21.2
2022-09-01T15:52:32.443Z,21.2
2022-09-01T15:55:20.688Z,21.1
2022-09-01T15:58:10.769Z,21
2022-09-01T16:01:01.708Z,20.9
2022-09-01T16:03:49.450Z,20.9
2022-09-01T16:06:37.137Z,20.8
2022-09-01T16:09:26.813Z,20.7
2022-09-01T16:12:14.454Z,20.7
2022-09-01T16:15:04.969Z,20.6
2022-09-01T16:17:54.289Z,20.6
2022-09-01T16:20:58.681Z,20.5
2022-09-01T16:23:55.574Z,20.5
2022-09-01T16:26:50.239Z,20.4
2022-09-01T16:29:40.938Z,20.4
2022-09-01T16:32:34.378Z,20.4
2022-09-01T16:35:24.142Z,20.4
2022-09-01T16:38:29.445Z,20.4
2022-09-01T16:41:26.356Z,20.3
2022-09-01T16:44:29.097Z,20.3
2022-09-01T16:47:27.236Z,20.3
2022-09-01T16:50:26.195Z,20.3
2022-09-01T16:53:25.873Z,20.2
2022-09-01T16:56:28.900Z,20.2
2022-09-01T17:02:18.171Z,20.1
2022-09-01T17:05:20.479Z,20.1
2022-09-01T17:08:14.747Z,20
2022-09-01T17:11:08.410Z,20
2022-09-01T17:14:04.219Z,19.9
2022-09-01T17:16:54.990Z,19.9
2022-09-01T17:19:53.173Z,19.8
2022-09-01T17:22:40.899Z,19.8
2022-09-01T17:25:35.513Z,19.7
2022-09-01T17:28:39.023Z,19.6
2022-09-01T17:31:33.841Z,19.6
2022-09-01T17:34:36.550Z,19.5
2022-09-01T17:37:36.767Z,19.5
2022-09-01T17:40:37.789Z,19.4
2022-09-01T17:43:39.536Z,19.4
2022-09-01T17:46:37.008Z,19.4
2022-09-01T17:49:30.562Z,19.3
2022-09-01T17:52:23.596Z,19.3
2022-09-01T17:55:29.257Z,19.2
2022-09-01T17:58:30.486Z,19.2
2022-09-01T18:01:34.041Z,19.1
2022-09-01T18:04:31.846Z,19.1
2022-09-01T18:07:32.065Z,19.1
2022-09-01T18:10:37.288Z,19
2022-09-01T18:13:51.968Z,19
2022-09-01T18:16:47.334Z,19
2022-09-01T18:19:47.524Z,18.9
2022-09-01T18:22:44.103Z,18.9
2022-09-01T18:25:37.053Z,18.9
2022-09-01T18:28:28.197Z,18.8
2022-09-01T18:31:16.284Z,18.8
2022-09-01T18:34:22.146Z,18.8
2022-09-01T18:37:21.239Z,18.8
2022-09-01T18:40:17.428Z,18.7
2022-09-01T18:43:16.184Z,18.7
2022-09-01T18:46:14.672Z,18.7
2022-09-01T18:49:10.827Z,18.7
2022-09-01T18:52:09.235Z,18.7
2022-09-01T18:55:10.065Z,18.6
2022-09-01T18:58:09.207Z,18.6
2022-09-01T19:01:12.869Z,18.6
2022-09-01T19:04:10.281Z,18.6
2022-09-01T19:07:07.237Z,18.5
2022-09-01T19:10:04.756Z,18.5
2022-09-01T19:13:01.282Z,18.5
2022-09-01T19:15:58.073Z,18.4
2022-09-01T19:18:58.264Z,18.3
2022-09-01T19:21:54.777Z,18.3
2022-09-01T19:24:42.863Z,18.2
2022-09-01T19:27:38.515Z,18.2
2022-09-01T19:30:26.677Z,18.1
2022-09-01T19:33:15.594Z,18
2022-09-01T19:36:09.010Z,18
2022-09-01T19:39:02.974Z,17.9
2022-09-01T19:41:57.019Z,17.9
2022-09-01T19:44:50.221Z,17.8
2022-09-01T19:47:48.500Z,17.8
2022-09-01T19:50:40.755Z,17.7
2022-09-01T19:53:35.252Z,17.7
2022-09-01T19:56:30.215Z,17.7
2022-09-01T19:59:23.271Z,17.6
2022-09-01T20:02:16.910Z,17.6
2022-09-01T20:05:13.515Z,17.5
2022-09-01T20:08:11.756Z,17.5
2022-09-01T20:11:05.825Z,17.4
2022-09-01T20:14:00.228Z,17.4
2022-09-01T20:16:59.263Z,17.4
2022-09-01T20:19:49.448Z,17.3
2022-09-01T20:22:42.500Z,17.3
2022-09-01T20:25:40.131Z,17.3
2022-09-01T20:28:32.166Z,17.3
2022-09-01T20:31:38.802Z,17.2
2022-09-01T20:34:30.160Z,17.6
2022-09-01T20:37:25.066Z,18.2
2022-09-01T20:40:19.259Z,18.4
2022-09-01T20:43:14.479Z,18.2
2022-09-01T20:46:12.084Z,18
2022-09-01T20:49:03.839Z,17.8
2022-09-01T20:51:51.411Z,17.7
2022-09-01T20:54:47.603Z,17.5
2022-09-01T20:57:43.991Z,17.4
2022-09-01T21:00:40.292Z,17.3
2022-09-01T21:03:35.923Z,17.3
2022-09-01T21:06:31.386Z,17.2
2022-09-01T21:09:33.954Z,17.2
2022-09-01T21:12:31.514Z,17.1
2022-09-01T21:15:22.969Z,17.1
2022-09-01T21:18:20.258Z,17.1
2022-09-01T21:21:22.720Z,17
2022-09-01T21:24:20.889Z,16.9
2022-09-01T21:27:08.482Z,16.9
2022-09-01T21:30:02.242Z,17.6
2022-09-01T21:32:54.481Z,19.3
2022-09-01T21:35:42.417Z,19.4
2022-09-01T21:38:29.940Z,18.8
2022-09-01T21:41:17.570Z,18.4
2022-09-01T21:44:05.215Z,18
2022-09-01T21:46:54.188Z,17.7
2022-09-01T21:49:42.745Z,17.5
2022-09-01T21:52:30.588Z,17.3
2022-09-01T21:55:22.553Z,17.2
2022-09-01T21:58:11.629Z,17.1
2022-09-01T22:00:59.797Z,17
2022-09-01T22:03:48.030Z,16.9
2022-09-01T22:06:35.678Z,17.1
2022-09-01T22:09:25.190Z,17.7
2022-09-01T22:12:13.208Z,18.2
2022-09-01T22:15:00.789Z,18.1
2022-09-01T22:17:49.467Z,17.8
2022-09-01T22:20:38.492Z,17.5
2022-09-01T22:23:26.822Z,17.3
2022-09-01T22:26:15.642Z,17.1
2022-09-01T22:29:06.369Z,17
2022-09-01T22:31:54.157Z,16.9
2022-09-01T22:34:43.530Z,16.7
2022-09-01T22:37:31.298Z,16.7
2022-09-01T22:40:19.472Z,16.6
2022-09-01T22:43:07.274Z,16.5
2022-09-01T22:45:55.135Z,16.5
2022-09-01T22:48:44.018Z,16.4
2022-09-01T22:51:31.895Z,16.3
2022-09-01T22:54:21.841Z,16.3
2022-09-01T22:57:09.590Z,16.2
2022-09-01T22:59:57.139Z,16.2
2022-09-01T23:02:45.571Z,16.1
2022-09-01T23:05:33.282Z,16.1
2022-09-01T23:08:20.888Z,16
2022-09-01T23:11:08.525Z,16
2022-09-01T23:13:57.361Z,16.6
2022-09-01T23:16:45.700Z,17.6
2022-09-01T23:19:35.643Z,17.7
2022-09-01T23:22:23.897Z,17.3
2022-09-01T23:25:11.382Z,17.1
2022-09-01T23:28:00.927Z,16.8
2022-09-01T23:30:49.498Z,16.5
2022-09-01T23:33:37.761Z,16.3
2022-09-01T23:36:25.447Z,16.2
2022-09-01T23:39:14.554Z,16.1
2022-09-01T23:42:02.528Z,15.9
2022-09-01T23:44:50.725Z,15.8
2022-09-01T23:47:38.375Z,15.8
2022-09-01T23:50:26.034Z,15.7
2022-09-01T23:53:13.804Z,15.6
2022-09-01T23:56:01.709Z,15.8
2022-09-01T23:58:56.394Z,16.4
